createdAt,value
2023-02-16T00:00:01.020Z,56.08
2023-02-16T00:05:22.188Z,46.20
2023-02-16T00:10:25.328Z,75.55
2023-02-16T00:15:26.839Z,44.95
2023-02-16T00:20:31.754Z,44.30
2023-02-16T00:25:33.306Z,55.08
2023-02-16T00:30:34.854Z,50.25
2023-02-16T00:35:36.460Z,47.35
2023-02-16T00:40:38.520Z,45.22
2023-02-16T00:45:41.215Z,45.55
2023-02-16T00:50:42.971Z,45.95
2023-02-16T00:55:44.791Z,46.70
2023-02-16T01:00:50.921Z,44.55
2023-02-16T01:06:15.366Z,47.45
2023-02-16T01:11:17.344Z,45.75
2023-02-16T01:16:24.899Z,59.53
2023-02-16T01:21:26.402Z,59.72
2023-02-16T01:26:28.656Z,66.60
2023-02-16T01:31:30.265Z,57.67
2023-02-16T01:36:35.250Z,51.88
2023-02-16T01:41:59.411Z,51.05
2023-02-16T01:47:12.836Z,44.95
2023-02-16T01:52:38.599Z,49.28
2023-02-16T01:57:48.255Z,44.90
2023-02-16T02:03:16.294Z,47.40
2023-02-16T02:08:31.257Z,43.23
2023-02-16T02:13:41.066Z,44.15
2023-02-16T02:18:44.935Z,43.75
2023-02-16T02:24:11.701Z,42.50
2023-02-16T02:29:48.947Z,42.90
2023-02-16T02:35:17.998Z,46.38
2023-02-16T02:40:47.953Z,49.80
2023-02-16T02:46:14.464Z,43.13
2023-02-16T02:51:33.563Z,42.58
2023-02-16T02:56:57.785Z,43.13
2023-02-16T03:02:02.484Z,42.72
2023-02-16T03:07:06.581Z,40.72
2023-02-16T03:12:28.820Z,41.78
2023-02-16T03:17:53.982Z,42.00
2023-02-16T03:23:15.328Z,40.15
2023-02-16T03:28:38.149Z,36.75
2023-02-16T03:33:41.040Z,38.75
2023-02-16T03:38:42.680Z,43.67
2023-02-16T03:43:44.341Z,39.38
2023-02-16T03:48:45.828Z,41.88
2023-02-16T03:53:47.409Z,54.83
2023-02-16T03:58:48.921Z,40.40
2023-02-16T04:03:50.578Z,42.25
2023-02-16T04:08:52.166Z,42.35
2023-02-16T04:13:53.679Z,39.60
2023-02-16T04:18:55.311Z,44.88
2023-02-16T04:23:56.847Z,43.63
2023-02-16T04:28:58.394Z,43.80
2023-02-16T04:33:59.929Z,48.08
2023-02-16T04:39:01.640Z,42.75
2023-02-16T04:44:03.363Z,40.70
2023-02-16T04:49:04.907Z,43.17
2023-02-16T04:54:07.459Z,40.70
2023-02-16T04:59:09.004Z,38.78
2023-02-16T05:04:10.708Z,40.38
2023-02-16T05:09:12.453Z,41.45
2023-02-16T05:14:38.676Z,40.42
2023-02-16T05:19:41.065Z,44.88
2023-02-16T05:24:43.327Z,41.30
2023-02-16T05:29:44.878Z,46.85
2023-02-16T05:34:46.454Z,44.15
2023-02-16T05:39:48.664Z,38.95
2023-02-16T05:44:50.254Z,43.63
2023-02-16T05:49:51.776Z,40.28
2023-02-16T05:54:53.404Z,45.95
2023-02-16T05:59:54.908Z,43.05
2023-02-16T06:04:56.404Z,45.70
2023-02-16T06:09:57.961Z,51.13
2023-02-16T06:14:59.476Z,46.55
2023-02-16T06:20:00.939Z,49.22
2023-02-16T06:25:03.283Z,48.65
2023-02-16T06:30:06.154Z,51.85
2023-02-16T06:35:07.968Z,50.65
2023-02-16T06:40:10.449Z,50.97
2023-02-16T06:45:12.201Z,54.08
2023-02-16T06:50:14.503Z,54.42
2023-02-16T06:55:16.163Z,49.40
2023-02-16T07:00:18.132Z,48.63
2023-02-16T07:05:19.658Z,46.83
2023-02-16T07:10:21.262Z,45.45
2023-02-16T07:15:23.229Z,49.20
2023-02-16T07:20:24.738Z,47.05
2023-02-16T07:25:26.313Z,46.67
2023-02-16T07:30:27.933Z,45.88
2023-02-16T07:35:29.668Z,46.03
2023-02-16T07:40:31.729Z,46.10
2023-02-16T07:45:34.016Z,42.60
2023-02-16T07:50:36.739Z,48.55
2023-02-16T07:55:45.603Z,50.65
2023-02-16T08:00:47.127Z,44.50
2023-02-16T08:05:48.860Z,45.53
2023-02-16T08:10:50.447Z,45.05
2023-02-16T08:15:51.985Z,71.22
2023-02-16T08:21:03.843Z,53.85
2023-02-16T08:26:13.832Z,45.08
2023-02-16T08:31:30.995Z,50.58
2023-02-16T08:36:34.942Z,34.20
2023-02-16T08:41:37.484Z,45.10
2023-02-16T08:46:41.219Z,43.35
2023-02-16T08:51:46.151Z,45.80
2023-02-16T08:56:49.533Z,47.92
2023-02-16T09:01:51.115Z,48.70
2023-02-16T09:06:53.452Z,48.55
2023-02-16T09:11:55.166Z,50.83
2023-02-16T09:16:57.998Z,47.70
2023-02-16T09:21:59.732Z,53.80
2023-02-16T09:27:01.649Z,56.67
2023-02-16T09:32:03.336Z,53.03
2023-02-16T09:37:04.939Z,55.80
2023-02-16T09:42:11.498Z,60.05
2023-02-16T09:47:24.608Z,60.75
2023-02-16T09:52:38.008Z,54.97
2023-02-16T09:58:04.333Z,53.63
2023-02-16T10:03:21.258Z,58.80
2023-02-16T10:08:31.271Z,50.15
2023-02-16T10:13:49.580Z,50.00
2023-02-16T10:18:53.471Z,52.60
2023-02-16T10:24:00.607Z,58.03
2023-02-16T10:29:14.063Z,44.67
2023-02-16T10:34:37.762Z,53.42
2023-02-16T10:39:51.971Z,54.13
2023-02-16T10:45:15.532Z,51.67
2023-02-16T10:50:35.904Z,50.22
2023-02-16T10:55:38.711Z,50.45
2023-02-16T11:00:51.818Z,50.90
2023-02-16T11:05:53.597Z,45.78
2023-02-16T11:10:55.521Z,51.30
2023-02-16T11:16:01.138Z,50.53
2023-02-16T11:21:04.227Z,49.72
2023-02-16T11:26:12.016Z,45.90
2023-02-16T11:31:18.766Z,46.75
2023-02-16T11:36:37.601Z,50.17
2023-02-16T11:41:48.666Z,48.22
2023-02-16T11:46:50.332Z,51.22
2023-02-16T11:51:51.913Z,53.83
2023-02-16T11:57:05.315Z,53.30
2023-02-16T12:02:44.515Z,52.25
2023-02-16T12:08:03.651Z,48.40
2023-02-16T12:13:32.916Z,48.78
2023-02-16T12:18:53.330Z,55.30
2023-02-16T12:24:17.916Z,59.17
2023-02-16T12:29:57.573Z,61.25
2023-02-16T12:35:37.728Z,57.95
2023-02-16T12:41:12.836Z,56.67
2023-02-16T12:46:29.635Z,65.70
2023-02-16T12:51:39.094Z,65.90
2023-02-16T12:56:50.223Z,63.53
2023-02-16T13:01:56.092Z,65.32
2023-02-16T13:07:06.168Z,65.25
2023-02-16T13:12:39.313Z,62.67
2023-02-16T13:17:47.333Z,64.43
2023-02-16T13:23:03.605Z,65.88
2023-02-16T13:28:44.434Z,70.55
2023-02-16T13:34:20.830Z,68.00
2023-02-16T13:39:47.519Z,71.72
2023-02-16T13:44:55.902Z,72.97
2023-02-16T13:50:01.417Z,73.07
2023-02-16T13:55:08.277Z,75.43
2023-02-16T14:00:34.600Z,72.60
2023-02-16T14:05:44.958Z,70.50
2023-02-16T14:10:53.142Z,70.78
2023-02-16T14:21:15.465Z,66.25
2023-02-16T14:26:17.751Z,65.97
2023-02-16T14:31:22.865Z,65.55
2023-02-16T14:36:26.960Z,67.03
2023-02-16T14:41:36.857Z,68.00
2023-02-16T14:47:03.365Z,70.00
2023-02-16T14:52:29.557Z,61.50
2023-02-16T14:57:31.325Z,61.70
2023-02-16T15:02:36.355Z,60.88
2023-02-16T15:07:38.876Z,62.88
2023-02-16T15:12:41.191Z,67.05
2023-02-16T15:17:48.094Z,65.85
2023-02-16T15:22:52.515Z,73.22
2023-02-16T15:28:04.397Z,78.80
2023-02-16T15:33:14.082Z,72.82
2023-02-16T15:38:26.555Z,79.45
2023-02-16T15:43:35.834Z,74.63
2023-02-16T15:48:38.366Z,77.03
2023-02-16T15:53:50.007Z,83.65
2023-02-16T15:58:52.952Z,94.38
2023-02-16T16:03:54.784Z,85.07
2023-02-16T16:08:56.789Z,92.95
2023-02-16T16:13:58.409Z,96.93
2023-02-16T16:19:08.113Z,95.65
2023-02-16T16:24:10.733Z,98.90
2023-02-16T16:29:34.461Z,89.82
2023-02-16T16:34:39.029Z,77.90
2023-02-16T16:39:41.543Z,82.93
2023-02-16T16:44:55.353Z,78.68
2023-02-16T16:50:10.561Z,95.80
2023-02-16T16:55:27.198Z,85.90
2023-02-16T17:00:34.474Z,77.47
2023-02-16T17:05:38.241Z,54.63
2023-02-16T17:10:41.258Z,67.95
2023-02-16T17:16:09.441Z,66.60
2023-02-16T17:21:13.368Z,55.92
2023-02-16T17:26:15.055Z,54.53
2023-02-16T17:31:16.721Z,57.50
2023-02-16T17:36:20.452Z,59.88
2023-02-16T17:41:27.754Z,56.88
2023-02-16T17:46:30.662Z,51.97
2023-02-16T17:51:36.194Z,50.47
2023-02-16T17:56:41.731Z,51.58
2023-02-16T18:01:44.588Z,49.90
2023-02-16T18:06:46.178Z,41.63
2023-02-16T18:11:47.809Z,40.97
2023-02-16T18:16:52.916Z,41.90
2023-02-16T18:21:54.883Z,35.20
2023-02-16T18:26:56.510Z,37.30
2023-02-16T18:31:58.120Z,39.30
2023-02-16T18:36:59.792Z,37.80
2023-02-16T18:42:01.455Z,38.83
2023-02-16T18:47:03.332Z,36.85
2023-02-16T18:52:04.847Z,38.85
2023-02-16T18:57:07.060Z,36.03
2023-02-16T19:02:08.670Z,33.17
2023-02-16T19:07:10.781Z,32.72
2023-02-16T19:12:12.693Z,31.33
2023-02-16T19:17:14.395Z,28.90
2023-02-16T19:22:15.968Z,28.20
2023-02-16T19:27:18.175Z,28.92
2023-02-16T19:32:20.467Z,29.70
2023-02-16T19:37:22.140Z,33.38
2023-02-16T19:42:23.936Z,29.45
2023-02-16T19:47:25.526Z,32.22
2023-02-16T19:52:27.119Z,31.80
2023-02-16T19:57:28.707Z,37.17
2023-02-16T20:02:31.964Z,33.42
2023-02-16T20:07:34.727Z,30.00
2023-02-16T20:12:36.564Z,27.33
2023-02-16T20:17:38.162Z,31.58
2023-02-16T20:22:39.734Z,28.58
2023-02-16T20:27:41.814Z,30.92
2023-02-16T20:32:43.446Z,35.47
2023-02-16T20:37:45.016Z,34.03
2023-02-16T20:42:46.540Z,31.10
2023-02-16T20:47:48.691Z,31.85
2023-02-16T20:52:50.236Z,34.08
2023-02-16T20:57:51.791Z,35.10
2023-02-16T21:02:54.204Z,37.45
2023-02-16T21:07:55.839Z,37.20
2023-02-16T21:12:57.425Z,35.58
2023-02-16T21:17:59.145Z,37.92
2023-02-16T21:23:03.424Z,36.92
2023-02-16T21:28:05.017Z,33.72
2023-02-16T21:33:06.597Z,35.90
2023-02-16T21:38:08.155Z,39.45
2023-02-16T21:43:10.353Z,48.58
2023-02-16T21:48:30.514Z,32.47
2023-02-16T21:53:32.062Z,30.20
2023-02-16T21:58:33.781Z,35.67
2023-02-16T22:03:35.821Z,31.73
2023-02-16T22:08:38.100Z,30.27
2023-02-16T22:13:40.118Z,29.60
2023-02-16T22:18:42.153Z,29.73
2023-02-16T22:23:43.681Z,30.60
2023-02-16T22:28:45.159Z,26.55
2023-02-16T22:33:47.444Z,27.85
2023-02-16T22:38:48.996Z,29.10
2023-02-16T22:43:55.217Z,29.65
2023-02-16T22:48:58.498Z,31.40
2023-02-16T22:54:01.699Z,26.73
2023-02-16T22:59:03.374Z,27.50
2023-02-16T23:04:05.054Z,24.38
2023-02-16T23:09:22.891Z,31.15
2023-02-16T23:14:24.426Z,27.08
2023-02-16T23:19:26.610Z,25.50
2023-02-16T23:24:28.325Z,25.48
2023-02-16T23:29:30.125Z,25.70
2023-02-16T23:34:31.834Z,25.80
2023-02-16T23:39:33.366Z,27.90
2023-02-16T23:44:34.886Z,27.42
2023-02-16T23:49:36.428Z,29.90
2023-02-16T23:54:38.020Z,32.72
2023-02-16T23:59:39.889Z,31.25
